Time;durP1;ratioP1;P1;durP2;ratioP2;P2;SDS_P1;SDS_P2;PMS_P1;PMS_P2;Temp;Humidity;BMP_temperature;BMP_pressure;BME280_temperature;BME280_humidity;BME280_pressure;Samples;Min_cycle;Max_cycle;Signal;HPM_P1;HPM_P2
2022/04/29 00:00:14;;;;;;;8.07;3.50;;;;;;;7.95;100.00;95280.91;5055715;28;20025;-95
2022/04/29 00:02:40;;;;;;;5.90;3.25;;;;;;;8.04;100.00;95282.16;5056622;28;20036;-94
2022/04/29 00:05:15;;;;;;;5.25;2.97;;;;;;;8.12;100.00;95282.81;5055951;28;20033;-95
2022/04/29 00:07:41;;;;;;;6.63;3.30;;;;;;;8.22;100.00;95277.81;5055622;28;20029;-95
2022/04/29 00:10:15;;;;;;;9.35;4.13;;;;;;;8.11;100.00;95283.84;5039235;28;20104;-95
2022/04/29 00:12:48;;;;;;;9.90;3.90;;;;;;;7.96;100.00;95279.88;5040256;28;20029;-95
2022/04/29 00:15:24;;;;;;;5.15;3.13;;;;;;;8.21;100.00;95284.06;5039698;28;20029;-94
2022/04/29 00:17:52;;;;;;;5.70;2.70;;;;;;;8.34;100.00;95285.63;5039895;28;20037;-95
2022/04/29 00:20:42;;;;;;;4.78;2.70;;;;;;;8.26;100.00;95278.16;5040787;28;20032;-94
2022/04/29 00:23:16;;;;;;;7.18;2.65;;;;;;;8.12;100.00;95278.41;5058697;28;20029;-95
2022/04/29 00:25:54;;;;;;;;;;;;;;;;;;;;;
2022/04/29 00:28:33;;;;;;;;;;;;;;;;;;;;;
2022/04/29 00:31:11;;;;;;;;;;;;;;;;;;;;;
2022/04/29 00:33:37;;;;;;;4.55;2.75;;;;;;;8.71;100.00;95295.78;5059046;28;20438;-95
2022/04/29 00:36:10;;;;;;;4.28;2.60;;;;;;;8.65;100.00;95288.09;5042386;28;20127;-94
2022/04/29 00:38:51;;;;;;;;;;;;;;;;;;;;;
2022/04/29 00:41:33;;;;;;;4.07;2.47;;;;;;;8.73;100.00;95279.88;5059019;28;20029;-95
2022/04/29 00:44:07;;;;;;;4.72;2.85;;;;;;;8.82;100.00;95286.31;5059622;28;20032;-96
2022/04/29 00:46:44;;;;;;;7.05;2.40;;;;;;;8.51;100.00;95287.53;5042671;28;20083;-94
2022/04/29 00:49:14;;;;;;;3.45;2.28;;;;;;;8.41;100.00;95278.47;5058449;28;20072;-93
2022/04/29 00:51:52;;;;;;;;;;;;;;;;;;;;;
2022/04/29 00:54:33;;;;;;;4.47;2.50;;;;;;;8.38;100.00;95275.50;5058507;28;20025;-94
2022/04/29 00:57:05;;;;;;;5.05;2.92;;;;;;;8.17;100.00;95281.09;5041928;28;20029;-94
2022/04/29 00:59:58;;;;;;;;;;;;;;;;;;;;;
2022/04/29 01:02:24;;;;;;;5.00;3.50;;;;;;;8.11;100.00;95284.66;5059315;28;20021;-94
2022/04/29 01:05:20;;;;;;;;;;;;;;;;;;;;;
2022/04/29 01:07:57;;;;;;;;;;;;;;;;;;;;;
2022/04/29 01:10:26;;;;;;;7.00;3.33;;;;;;;7.56;100.00;95281.34;5059123;28;20027;-94
2022/04/29 01:13:04;;;;;;;5.13;3.17;;;;;;;7.55;100.00;95284.16;5041974;28;20025;-94
2022/04/29 01:15:35;;;;;;;8.25;3.40;;;;;;;7.51;100.00;95286.41;5058129;28;20029;-94
2022/04/29 01:18:14;;;;;;;8.88;3.90;;;;;;;7.64;100.00;95277.59;5042010;28;20025;-95
2022/04/29 01:20:49;;;;;;;;;;;;;;;;;;;;;
2022/04/29 01:23:34;;;;;;;;;;;;;;;;;;;;;
2022/04/29 01:26:10;;;;;;;;;;;;;;;;;;;;;
2022/04/29 01:28:38;;;;;;;5.80;2.63;;;;;;;7.84;100.00;95274.66;5057959;28;20333;-95
2022/04/29 01:31:20;;;;;;;;;;;;;;;;;;;;;
2022/04/29 01:33:58;;;;;;;;;;;;;;;;;;;;;
2022/04/29 01:36:34;;;;;;;;;;;;;;;;;;;;;
2022/04/29 01:39:00;;;;;;;6.55;2.55;;;;;;;7.85;100.00;95267.63;5057664;28;20021;-95
2022/04/29 01:41:35;;;;;;;;;;;;;;;;;;;;;
2022/04/29 01:44:13;;;;;;;;;;;;;;;;;;;;;
2022/04/29 01:46:53;;;;;;;;;;;;;;;;;;;;;
2022/04/29 01:49:28;;;;;;;;;;;;;;;;;;;;;
2022/04/29 01:52:05;;;;;;;;;;;;;;;;;;;;;
2022/04/29 01:54:31;;;;;;;5.35;2.80;;;;;;;7.72;100.00;95259.00;5057289;28;20016;-94
2022/04/29 01:57:03;;;;;;;8.68;3.33;;;;;;;7.68;100.00;95257.88;5040523;28;20128;-94
2022/04/29 01:59:32;;;;;;;5.57;2.95;;;;;;;7.90;100.00;95259.91;5041648;28;20078;-94
2022/04/29 02:02:23;;;;;;;4.65;2.50;;;;;;;8.01;100.00;95253.88;5056953;28;20039;-95
2022/04/29 02:04:49;;;;;;;6.03;2.55;;;;;;;7.72;100.00;95253.78;5057795;28;20029;-95
2022/04/29 02:07:19;;;;;;;4.90;2.95;;;;;;;7.89;100.00;95250.47;5040351;28;20120;-95
2022/04/29 02:10:00;;;;;;;;;;;;;;;;;;;;;
2022/04/29 02:12:35;;;;;;;;;;;;;;;;;;;;;
2022/04/29 02:15:26;;;;;;;6.00;2.78;;;;;;;8.01;100.00;95243.44;5057264;28;20028;-94
2022/04/29 02:17:50;;;;;;;4.43;3.08;;;;;;;7.93;100.00;95244.59;5056481;28;20083;-94
2022/04/29 02:20:21;;;;;;;6.43;3.15;;;;;;;7.61;100.00;95237.09;5040720;28;20389;-94
2022/04/29 02:22:46;;;;;;;11.73;3.05;;;;;;;7.63;100.00;95235.06;5041055;28;20032;-94
2022/04/29 02:25:12;;;;;;;5.13;2.80;;;;;;;7.49;100.00;95233.69;5056829;28;20037;-94
2022/04/29 02:27:41;;;;;;;5.47;3.20;;;;;;;7.47;100.00;95236.56;5040663;28;20078;-94
2022/04/29 02:30:11;;;;;;;6.05;3.03;;;;;;;7.66;100.00;95236.44;5041073;28;20033;-94
2022/04/29 02:33:24;;;;;;;4.50;2.80;;;;;;;7.63;100.00;95239.50;5040485;28;20350;-94
2022/04/29 02:35:52;;;;;;;5.35;2.33;;;;;;;7.55;100.00;95232.00;5058175;28;20031;-94
2022/04/29 02:38:17;;;;;;;5.45;3.22;;;;;;;7.44;100.00;95221.34;5040542;28;20028;-93
2022/04/29 02:40:55;;;;;;;;;;;;;;;;;;;;;
2022/04/29 02:43:21;;;;;;;6.90;2.85;;;;;;;7.63;100.00;95226.47;5056123;28;20035;-94
2022/04/29 02:45:50;;;;;;;6.82;3.47;;;;;;;7.64;100.00;95225.44;5040158;28;20119;-94
2022/04/29 02:48:18;;;;;;;6.28;3.03;;;;;;;7.58;100.00;95215.91;5056697;28;20029;-93
2022/04/29 02:50:47;;;;;;;7.07;3.17;;;;;;;7.60;100.00;95219.88;5040760;28;20119;-93
2022/04/29 02:53:27;;;;;;;;;;;;;;;;;;;;;
2022/04/29 02:56:11;;;;;;;;;;;;;;;;;;;;;
2022/04/29 02:58:47;;;;;;;;;;;;;;;;;;;;;
2022/04/29 03:01:18;;;;;;;5.47;3.65;;;;;;;7.62;100.00;95215.22;5056491;28;20028;-95
2022/04/29 03:03:46;;;;;;;5.88;3.10;;;;;;;7.47;100.00;95218.28;5040336;28;20094;-94
2022/04/29 03:06:19;;;;;;;9.35;3.30;;;;;;;7.60;100.00;95206.03;5056299;28;20041;-95
2022/04/29 03:08:47;;;;;;;7.53;2.97;;;;;;;7.54;100.00;95209.56;5040016;28;20028;-95
2022/04/29 03:11:25;;;;;;;;;;;;;;;;;;;;;
2022/04/29 03:14:08;;;;;;;;;;;;;;;;;;;;;
2022/04/29 03:16:49;;;;;;;;;;;;;;;;;;;;;
2022/04/29 03:19:17;;;;;;;7.68;3.33;;;;;;;6.95;100.00;95205.84;5056423;28;20310;-95
2022/04/29 03:21:48;;;;;;;5.45;3.13;;;;;;;6.93;100.00;95210.50;5056682;28;20386;-96
2022/04/29 03:24:24;;;;;;;4.07;2.90;;;;;;;6.95;100.00;95212.88;5040094;28;20422;-94
2022/04/29 03:26:50;;;;;;;3.90;2.60;;;;;;;6.96;100.00;95211.88;5040593;28;20107;-94
2022/04/29 03:29:26;;;;;;;;;;;;;;;;;;;;;
2022/04/29 03:32:01;;;;;;;;;;;;;;;;;;;;;
2022/04/29 03:34:28;;;;;;;7.88;4.80;;;;;;;6.48;100.00;95211.72;5056141;28;20027;-94
2022/04/29 03:37:03;;;;;;;7.22;3.83;;;;;;;6.33;100.00;95214.69;5039359;28;20032;-94
2022/04/29 03:39:37;;;;;;;6.85;3.20;;;;;;;6.44;100.00;95213.16;5040962;28;20032;-94
2022/04/29 03:42:17;;;;;;;;;;;;;;;6.59;100.00;95217.97;5040543;28;20033;-95
2022/04/29 03:44:45;;;;;;;5.05;3.33;;;;;;;6.49;100.00;95210.69;5055816;28;20321;-95
2022/04/29 03:47:20;;;;;;;;;;;;;;;;;;;;;
2022/04/29 03:49:58;;;;;;;6.40;3.50;;;;;;;6.63;100.00;95209.50;5055958;28;20418;-94
2022/04/29 03:52:25;;;;;;;7.25;3.70;;;;;;;6.79;100.00;95202.84;5040239;28;20090;-94
2022/04/29 03:55:00;;;;;;;6.45;3.38;;;;;;;6.89;100.00;95202.34;5040192;28;20123;-95
2022/04/29 03:57:53;;;;;;;7.95;3.75;;;;;;;7.14;100.00;95206.56;5044019;28;20123;-94
2022/04/29 04:00:27;;;;;;;5.25;2.80;;;;;;;7.21;100.00;95211.69;5060015;28;20025;-94
2022/04/29 04:02:53;;;;;;;4.70;3.22;;;;;;;6.96;100.00;95204.03;5043700;28;20028;-96
2022/04/29 04:05:21;;;;;;;5.97;3.30;;;;;;;7.14;100.00;95206.56;5042934;28;20087;-93
2022/04/29 04:07:49;;;;;;;6.10;2.90;;;;;;;7.15;100.00;95212.59;5043033;28;20037;-94
2022/04/29 04:10:23;;;;;;;5.25;3.15;;;;;;;6.90;100.00;95213.53;5043038;28;20033;-95
2022/04/29 04:16:23;;;;;;;7.15;3.28;;;;;;;7.06;100.00;95223.31;5060142;28;20036;-94
2022/04/29 04:19:04;;;;;;;6.03;3.50;;;;;;;6.98;100.00;95223.66;5043760;28;20029;-93
2022/04/29 04:21:30;;;;;;;5.63;3.40;;;;;;;7.01;100.00;95217.19;5042947;28;20056;-94
2022/04/29 04:24:15;;;;;;;;;;;;;;;;;;;;;
2022/04/29 04:26:41;;;;;;;4.10;3.30;;;;;;;7.33;100.00;95224.75;5059459;28;20023;-94
2022/04/29 04:29:39;;;;;;;;;;;;;;;;;;;;;
2022/04/29 04:35:29;;;;;;;6.53;3.22;;;;;;;7.41;100.00;95223.63;5059821;28;20064;-95
2022/04/29 04:37:57;;;;;;;8.65;3.58;;;;;;;7.36;100.00;95226.91;5042590;28;20029;-96
2022/04/29 04:40:35;;;;;;;;;;;;;;;;;;;;;
2022/04/29 04:43:04;;;;;;;5.70;3.05;;;;;;;7.57;100.00;95228.16;5058709;28;20025;-93
2022/04/29 04:45:39;;;;;;;6.85;3.70;;;;;;;7.50;100.00;95230.88;5042315;28;20434;-95
2022/04/29 04:48:05;;;;;;;12.00;3.53;;;;;;;7.58;100.00;95234.97;5042856;28;20119;-93
2022/04/29 04:50:38;;;;;;;8.57;3.45;;;;;;;7.59;100.00;95240.94;5042757;28;20418;-93
2022/04/29 04:53:09;;;;;;;6.68;3.40;;;;;;;7.61;100.00;95231.13;5043488;28;20036;-94
2022/04/29 04:55:38;;;;;;;5.93;3.65;;;;;;;7.88;95.54;95228.03;5042792;28;20434;-94
2022/04/29 04:58:05;;;;;;;7.00;3.15;;;;;;;7.91;100.00;95243.25;5042124;28;20086;-94
2022/04/29 05:00:30;;;;;;;8.82;4.22;;;;;;;7.70;100.00;95242.78;5042052;28;20060;-95
2022/04/29 05:06:28;;;;;;;;;;;;;;;;;;;;;
2022/04/29 05:08:53;;;;;;;6.80;3.65;;;;;;;8.01;100.00;95246.03;5058358;28;20463;-94
2022/04/29 05:11:19;;;;;;;7.57;3.40;;;;;;;8.07;100.00;95250.38;5041715;28;20107;-94
2022/04/29 05:13:48;;;;;;;5.43;3.53;;;;;;;7.88;100.00;95244.47;5042044;28;20024;-96
2022/04/29 05:16:13;;;;;;;5.68;3.20;;;;;;;8.09;100.00;95252.72;5042354;28;20025;-95
2022/04/29 05:18:39;;;;;;;6.03;3.42;;;;;;;8.06;100.00;95259.22;5042343;28;20381;-94
2022/04/29 05:21:05;;;;;;;7.20;3.15;;;;;;;8.26;100.00;95252.81;5042801;28;20025;-95
2022/04/29 05:23:36;;;;;;;4.93;3.25;;;;;;;8.57;100.00;95247.44;5042282;28;20146;-95
2022/04/29 05:26:02;;;;;;;5.35;3.05;;;;;;;8.68;100.00;95253.66;5042257;28;20047;-94
2022/04/29 05:28:30;;;;;;;5.72;3.70;;;;;;;8.65;100.00;95256.75;5041916;28;20025;-95
2022/04/29 05:30:56;;;;;;;7.65;3.25;;;;;;;8.74;100.00;95263.16;5041521;28;20115;-95
2022/04/29 05:33:23;;;;;;;5.40;3.05;;;;;;;9.00;100.00;95261.81;5041383;28;20033;-94
2022/04/29 05:35:49;;;;;;;4.50;3.10;;;;;;;9.26;100.00;95258.84;5041058;28;20032;-94
2022/04/29 05:38:17;;;;;;;5.35;2.92;;;;;;;9.08;100.00;95265.06;5040890;28;20030;-94
2022/04/29 05:43:30;;;;;;;7.43;3.30;;;;;;;9.12;100.00;95261.75;5057699;28;20086;-93
2022/04/29 05:45:59;;;;;;;6.38;3.20;;;;;;;9.13;100.00;95263.34;5058495;28;20028;-95
2022/04/29 05:48:34;;;;;;;5.68;3.30;;;;;;;9.38;100.00;95264.00;5057398;28;20021;-94
2022/04/29 05:51:02;;;;;;;6.55;3.40;;;;;;;9.65;100.00;95269.41;5058349;28;20036;-93
2022/04/29 05:53:30;;;;;;;4.50;2.80;;;;;;;9.85;100.00;95263.69;5057296;28;20133;-94
2022/04/29 05:55:56;;;;;;;5.95;3.72;;;;;;;10.11;95.67;95263.22;5058190;28;20064;-93
2022/04/29 05:58:23;;;;;;;4.80;3.35;;;;;;;10.24;100.00;95264.69;5057129;28;20114;-94
2022/04/29 06:00:56;;;;;;;3.75;2.92;;;;;;;10.35;100.00;95263.81;5058518;28;20029;-94
2022/04/29 06:03:22;;;;;;;9.68;3.20;;;;;;;10.47;100.00;95271.56;5058260;28;20037;-94
2022/04/29 06:05:58;;;;;;;4.78;3.22;;;;;;;10.57;90.79;95266.44;5058078;28;20020;-94
2022/04/29 06:08:23;;;;;;;4.32;2.95;;;;;;;10.87;97.39;95274.91;5042007;28;20025;-94
2022/04/29 06:10:58;;;;;;;7.03;2.95;;;;;;;10.97;100.00;95266.34;5058320;28;20338;-94
2022/04/29 06:13:24;;;;;;;6.57;2.97;;;;;;;10.73;100.00;95270.03;5040803;28;20508;-94
2022/04/29 06:15:50;;;;;;;8.30;3.38;;;;;;;10.91;100.00;95277.84;5040418;28;20025;-94
2022/04/29 06:18:17;;;;;;;9.68;4.18;;;;;;;10.89;100.00;95275.44;5039815;28;20029;-93
2022/04/29 06:20:45;;;;;;;4.88;3.47;;;;;;;11.11;100.00;95270.16;5057268;28;20028;-94
2022/04/29 06:23:50;;;;;;;;;;;;;;;;;;;;;
2022/04/29 06:26:16;;;;;;;11.63;4.15;;;;;;;11.19;94.29;95282.03;5057652;28;20039;-94
2022/04/29 06:28:42;;;;;;;4.35;3.00;;;;;;;11.13;98.24;95280.41;5056733;28;20107;-94
2022/04/29 06:31:08;;;;;;;8.43;3.92;;;;;;;11.09;100.00;95276.69;5040706;28;20024;-94
2022/04/29 06:33:37;;;;;;;6.28;4.03;;;;;;;11.21;93.82;95276.56;5056694;28;20029;-93
2022/04/29 06:36:11;;;;;;;6.03;3.85;;;;;;;11.31;94.72;95266.94;5040504;28;20036;-93
2022/04/29 06:38:36;;;;;;;6.57;3.20;;;;;;;11.22;95.81;95275.50;5056458;28;20033;-94
2022/04/29 06:41:02;;;;;;;9.02;3.78;;;;;;;11.48;79.34;95271.25;5039916;28;20039;-94
2022/04/29 06:43:29;;;;;;;7.35;3.83;;;;;;;11.58;81.76;95273.16;5040023;28;20393;-93
2022/04/29 06:45:58;;;;;;;6.82;4.05;;;;;;;11.75;75.98;95278.28;5040515;28;20056;-94
2022/04/29 06:48:34;;;;;;;;;;;;;;;;;;;;;
2022/04/29 06:51:00;;;;;;;7.18;3.85;;;;;;;11.57;74.17;95280.28;5056768;28;20039;-95
2022/04/29 06:53:31;;;;;;;9.55;4.53;;;;;;;11.73;75.94;95275.91;5056925;28;20127;-95
2022/04/29 06:55:56;;;;;;;7.85;3.92;;;;;;;11.74;77.18;95274.88;5056318;28;20353;-92
2022/04/29 06:58:22;;;;;;;9.73;4.00;;;;;;;11.73;77.92;95275.13;5056440;28;20041;-92
2022/04/29 07:00:47;;;;;;;6.15;3.95;;;;;;;11.78;75.15;95272.53;5056353;28;20032;-91
2022/04/29 07:03:39;;;;;;;6.90;3.90;;;;;;;12.10;74.52;95263.06;5039676;28;20422;-91
2022/04/29 07:06:06;;;;;;;7.00;3.47;;;;;;;12.16;71.18;95267.28;5057050;28;20096;-91
2022/04/29 07:08:31;;;;;;;7.53;3.95;;;;;;;12.13;70.11;95259.91;5039848;28;20083;-91
2022/04/29 07:10:57;;;;;;;5.57;3.65;;;;;;;12.19;67.86;95258.88;5057040;28;20029;-92
2022/04/29 07:13:23;;;;;;;7.88;4.03;;;;;;;11.97;72.10;95264.25;5057043;28;20111;-91
2022/04/29 07:15:49;;;;;;;5.78;3.50;;;;;;;12.53;69.21;95266.41;5056212;28;20051;-91
2022/04/29 07:18:18;;;;;;;9.98;3.38;;;;;;;12.72;68.56;95279.09;5056051;28;20033;-92
2022/04/29 07:20:44;;;;;;;8.35;3.78;;;;;;;12.30;57.65;95265.00;5055986;28;20028;-92
2022/04/29 07:23:10;;;;;;;9.32;4.00;;;;;;;12.29;64.32;95266.03;5056932;28;20354;-92
2022/04/29 07:25:35;;;;;;;10.52;3.97;;;;;;;12.52;61.28;95272.72;5057230;28;20092;-91
2022/04/29 07:28:01;;;;;;;5.63;3.30;;;;;;;12.80;65.27;95268.06;5057204;28;20032;-91
2022/04/29 07:30:27;;;;;;;9.63;4.25;;;;;;;12.78;57.68;95266.75;5059588;28;20025;-92
2022/04/29 07:32:53;;;;;;;8.15;3.80;;;;;;;12.82;57.09;95263.34;5058276;28;20036;-92
2022/04/29 07:43:34;;;;;;;7.78;3.60;;;;;;;13.15;55.50;95266.56;5060039;28;20520;-91
2022/04/29 07:46:01;;;;;;;5.53;3.22;;;;;;;13.17;62.11;95263.69;5043222;28;20544;-92
2022/04/29 07:48:26;;;;;;;10.32;3.55;;;;;;;13.32;60.79;95264.75;5060614;28;20341;-91
2022/04/29 07:50:52;;;;;;;5.55;3.58;;;;;;;12.90;56.00;95267.31;5059631;28;20120;-91
2022/04/29 07:53:18;;;;;;;10.95;3.72;;;;;;;12.83;60.53;95264.13;5059414;28;20025;-92
2022/04/29 07:55:44;;;;;;;5.40;3.38;;;;;;;12.93;58.68;95264.16;5059109;28;20056;-91
2022/04/29 07:58:09;;;;;;;8.05;3.83;;;;;;;12.97;59.74;95261.81;5059369;28;20031;-91
2022/04/29 08:00:37;;;;;;;5.80;3.20;;;;;;;13.52;60.38;95274.53;5059627;28;20346;-91
2022/04/29 08:03:03;;;;;;;9.52;3.38;;;;;;;13.62;57.14;95273.75;5059326;28;20086;-92
2022/04/29 08:05:29;;;;;;;6.10;3.05;;;;;;;13.52;56.13;95258.75;5042708;28;20031;-91
2022/04/29 08:07:59;;;;;;;6.22;3.28;;;;;;;13.62;54.34;95266.63;5060240;28;20021;-91
2022/04/29 08:10:32;;;;;;;6.53;3.80;;;;;;;13.53;53.47;95261.09;5043516;28;20123;-91
2022/04/29 08:13:07;;;;;;;7.73;4.10;;;;;;;13.59;55.47;95271.63;5059012;28;20032;-91
2022/04/29 08:15:32;;;;;;;5.32;3.10;;;;;;;13.50;51.73;95274.00;5058865;28;20037;-91
2022/04/29 08:17:59;;;;;;;12.82;3.85;;;;;;;13.47;54.08;95282.41;5042496;28;20327;-91
2022/04/29 08:20:24;;;;;;;7.30;3.80;;;;;;;13.31;52.92;95274.47;5058984;28;20029;-92
2022/04/29 08:22:50;;;;;;;9.13;3.42;;;;;;;13.42;55.84;95267.41;5058999;28;20040;-92
2022/04/29 08:25:18;;;;;;;6.40;2.80;;;;;;;13.47;50.71;95259.53;5058840;28;20036;-92
2022/04/29 08:27:44;;;;;;;5.65;2.67;;;;;;;13.55;53.56;95261.59;5042302;28;20100;-92
2022/04/29 08:30:10;;;;;;;5.82;3.47;;;;;;;13.57;61.54;95272.69;5058801;28;20064;-92
2022/04/29 08:32:43;;;;;;;9.05;3.17;;;;;;;13.87;55.50;95269.50;5058944;28;20076;-92
2022/04/29 08:35:10;;;;;;;6.53;4.00;;;;;;;14.13;54.72;95265.78;5058844;28;20057;-91
2022/04/29 08:37:37;;;;;;;6.43;3.58;;;;;;;13.89;60.13;95268.16;5042000;28;20083;-91
2022/04/29 08:40:04;;;;;;;7.32;3.58;;;;;;;13.77;54.60;95262.38;5058534;28;20036;-91
2022/04/29 08:42:38;;;;;;;7.18;3.17;;;;;;;14.06;54.52;95272.34;5042211;28;20033;-92
2022/04/29 08:45:12;;;;;;;7.47;3.40;;;;;;;13.86;53.03;95276.63;5042368;28;20031;-92
2022/04/29 08:47:41;;;;;;;6.72;3.10;;;;;;;13.56;53.34;95260.59;5042478;28;20036;-93
2022/04/29 08:50:11;;;;;;;9.23;3.40;;;;;;;13.76;54.21;95276.63;5058482;28;20371;-91
2022/04/29 08:52:37;;;;;;;6.72;3.55;;;;;;;13.85;55.54;95273.22;5042266;28;20028;-92
2022/04/29 09:00:33;;;;;;;8.70;3.42;;;;;;;13.94;56.10;95270.81;5058372;28;20039;-92
2022/04/29 09:03:02;;;;;;;4.53;2.97;;;;;;;14.21;58.88;95276.81;5042339;28;20029;-92
2022/04/29 09:05:27;;;;;;;9.50;3.10;;;;;;;14.48;59.50;95268.56;5042474;28;20028;-93
2022/04/29 09:08:01;;;;;;;8.05;3.50;;;;;;;14.39;53.06;95264.91;5058400;28;20036;-93
2022/04/29 09:10:36;;;;;;;4.68;3.30;;;;;;;14.52;58.00;95260.91;5042096;28;20040;-92
2022/04/29 09:13:13;;;;;;;5.60;3.50;;;;;;;14.28;51.50;95264.94;5041862;28;20033;-92
2022/04/29 09:15:46;;;;;;;6.72;3.00;;;;;;;14.24;51.81;95278.91;5041832;28;20032;-92
2022/04/29 09:18:12;;;;;;;5.40;2.88;;;;;;;13.76;54.86;95258.19;5041545;28;20350;-92
2022/04/29 09:20:39;;;;;;;9.02;3.60;;;;;;;14.09;53.56;95275.25;5041623;28;20025;-92
2022/04/29 09:23:04;;;;;;;9.93;4.05;;;;;;;13.98;55.59;95271.06;5059089;28;20100;-92
2022/04/29 09:25:37;;;;;;;9.35;4.68;;;;;;;13.96;56.05;95263.44;5041403;28;20029;-93
2022/04/29 09:28:04;;;;;;;6.63;3.83;;;;;;;14.10;55.18;95263.66;5057838;28;20051;-92
2022/04/29 09:30:35;;;;;;;6.03;3.95;;;;;;;14.12;62.57;95266.81;5041332;28;20419;-92
2022/04/29 09:33:00;;;;;;;9.77;3.75;;;;;;;13.64;55.61;95259.25;5057621;28;20025;-91
2022/04/29 09:35:40;;;;;;;5.28;3.38;;;;;;;14.07;57.11;95266.06;5041283;28;20036;-92
2022/04/29 09:40:55;;;;;;;8.13;4.20;;;;;;;13.98;54.75;95253.41;5057757;28;20138;-92
2022/04/29 09:43:53;;;;;;;6.30;3.63;;;;;;;14.23;59.45;95241.25;5041067;28;20029;-91
2022/04/29 09:46:23;;;;;;;8.15;3.45;;;;;;;14.33;54.09;95250.16;5014356;28;20140;-92
2022/04/29 09:49:00;;;;;;;8.00;4.22;;;;;;;14.23;50.39;95245.72;5041021;28;20448;-92
2022/04/29 09:51:44;;;;;;;6.57;3.60;;;;;;;14.08;52.20;95244.69;5041038;28;20036;-92
2022/04/29 09:54:16;;;;;;;13.07;3.65;;;;;;;14.53;59.13;95238.75;5057553;28;20033;-92
2022/04/29 09:56:43;;;;;;;7.80;3.38;;;;;;;14.79;53.77;95249.22;5057296;28;20051;-91
2022/04/29 09:59:09;;;;;;;6.70;3.35;;;;;;;15.25;54.36;95245.50;5057471;28;20414;-92
2022/04/29 10:01:34;;;;;;;11.50;4.18;;;;;;;14.51;52.79;95228.47;5057009;28;20067;-93
2022/04/29 10:04:00;;;;;;;8.38;3.38;;;;;;;14.64;53.66;95226.31;5040414;28;20033;-93
2022/04/29 10:06:27;;;;;;;6.70;3.45;;;;;;;14.96;53.95;95222.47;5056962;28;20028;-92
2022/04/29 10:08:53;;;;;;;7.25;4.07;;;;;;;15.30;52.74;95220.94;5056766;28;20032;-93
2022/04/29 10:11:41;;;;;;;6.65;3.55;;;;;;;15.33;54.92;95218.50;5040398;28;20040;-93
2022/04/29 10:14:08;;;;;;;5.53;3.72;;;;;;;14.77;53.66;95212.53;5056945;28;20021;-93
2022/04/29 10:16:34;;;;;;;6.00;3.72;;;;;;;15.03;56.09;95209.75;5056858;28;20346;-93
2022/04/29 10:21:50;;;;;;;5.88;3.95;;;;;;;14.79;54.56;95199.88;5057012;28;20519;-92
2022/04/29 10:24:16;;;;;;;6.28;3.83;;;;;;;15.40;57.35;95205.78;5040208;28;20423;-93
2022/04/29 10:26:42;;;;;;;6.43;3.78;;;;;;;15.69;54.76;95201.56;5040242;28;20036;-93
2022/04/29 10:29:08;;;;;;;7.80;3.80;;;;;;;15.13;51.75;95199.13;5040564;28;20028;-93
2022/04/29 10:31:33;;;;;;;9.05;3.47;;;;;;;15.33;53.79;95194.75;5040511;28;20029;-93
2022/04/29 10:34:31;;;;;;;8.52;3.83;;;;;;;15.53;55.58;95190.38;5040449;28;20072;-94
2022/04/29 10:37:00;;;;;;;6.60;3.88;;;;;;;15.22;52.53;95203.81;5040677;28;20036;-94
2022/04/29 10:39:25;;;;;;;11.48;4.00;;;;;;;15.09;52.64;95189.38;5040458;28;20032;-93
2022/04/29 10:42:03;;;;;;;6.72;4.15;;;;;;;15.32;56.67;95185.25;5040183;28;20055;-93
2022/04/29 10:44:29;;;;;;;7.07;3.97;;;;;;;15.54;57.35;95176.09;5040084;28;20323;-93
2022/04/29 10:46:55;;;;;;;6.05;3.60;;;;;;;15.69;54.13;95173.31;5039578;28;20017;-94
2022/04/29 10:49:32;;;;;;;8.70;3.83;;;;;;;15.35;53.21;95191.84;5040092;28;20327;-93
2022/04/29 10:52:02;;;;;;;7.28;4.32;;;;;;;15.74;56.80;95182.22;5040392;28;20028;-94
2022/04/29 10:54:34;;;;;;;7.70;4.40;;;;;;;15.44;52.94;95178.81;5040461;28;20380;-94
2022/04/29 10:57:02;;;;;;;7.53;4.78;;;;;;;15.17;52.95;95180.91;5056452;28;20036;-94
2022/04/29 10:59:30;;;;;;;15.20;5.60;;;;;;;15.08;51.89;95185.97;5040188;28;20528;-94
2022/04/29 11:02:13;;;;;;;9.27;4.93;;;;;;;15.16;54.67;95178.53;5040144;28;20035;-94
2022/04/29 11:04:38;;;;;;;5.97;3.70;;;;;;;15.34;52.42;95188.41;5055656;28;20059;-94
2022/04/29 11:07:04;;;;;;;9.23;4.97;;;;;;;15.10;52.71;95175.13;5056547;28;20081;-94
2022/04/29 11:09:45;;;;;;;6.85;4.43;;;;;;;15.06;51.08;95172.28;5039965;28;20119;-93
2022/04/29 11:12:34;;;;;;;5.97;3.97;;;;;;;15.19;50.46;95172.69;5056491;28;20025;-93
2022/04/29 11:15:18;;;;;;;8.80;4.55;;;;;;;15.70;56.52;95158.22;5056552;28;20029;-93
2022/04/29 11:17:44;;;;;;;;;;;;;;;15.87;51.03;95157.03;5040219;28;20060;-95
2022/04/29 11:20:20;;;;;;;7.88;4.60;;;;;;;15.77;50.84;95163.19;5039652;28;19916;-94
2022/04/29 11:26:09;;;;;;;7.57;4.93;;;;;;;15.54;52.21;95158.38;5057230;28;20068;-94
2022/04/29 11:28:36;;;;;;;6.68;4.57;;;;;;;15.26;55.53;95157.31;5039723;28;20062;-94
2022/04/29 11:31:09;;;;;;;12.38;5.22;;;;;;;15.46;53.64;95147.63;5056057;28;20029;-93
2022/04/29 11:33:35;;;;;;;7.63;4.72;;;;;;;15.75;53.11;95163.47;5039771;28;20115;-94
2022/04/29 11:36:01;;;;;;;10.38;6.43;;;;;;;15.75;58.64;95138.91;5039463;28;20025;-93
2022/04/29 11:38:28;;;;;;;14.73;6.63;;;;;;;15.76;54.46;95146.56;5056060;28;20043;-95
2022/04/29 11:40:54;;;;;;;14.48;7.10;;;;;;;15.66;54.80;95136.88;5039839;28;20032;-94
2022/04/29 11:43:24;;;;;;;8.60;5.97;;;;;;;16.15;58.86;95141.41;5056037;28;20029;-94
2022/04/29 11:46:05;;;;;;;10.90;6.35;;;;;;;15.63;54.87;95126.09;5055781;28;20033;-94
2022/04/29 11:48:31;;;;;;;9.40;6.20;;;;;;;16.35;63.97;95121.81;5039637;28;20385;-94
2022/04/29 11:50:58;;;;;;;12.25;6.50;;;;;;;16.71;57.75;95125.81;5057278;28;20024;-93
2022/04/29 11:53:23;;;;;;;9.60;5.95;;;;;;;17.11;58.87;95123.66;5056703;28;20074;-93
2022/04/29 11:55:52;;;;;;;11.93;5.32;;;;;;;17.65;59.68;95123.25;5055975;28;20037;-94
2022/04/29 11:58:18;;;;;;;9.68;5.72;;;;;;;17.21;60.51;95120.84;5055619;28;20024;-93
2022/04/29 12:00:54;;;;;;;12.48;6.63;;;;;;;16.53;55.84;95123.72;5056145;28;20167;-95
2022/04/29 12:03:21;;;;;;;15.23;5.70;;;;;;;16.74;61.47;95128.69;5039704;28;20040;-94
2022/04/29 12:05:47;;;;;;;9.48;5.63;;;;;;;16.85;56.76;95131.19;5055936;28;20029;-94
2022/04/29 12:08:12;;;;;;;9.13;5.75;;;;;;;16.93;60.08;95106.72;5056559;28;20029;-93
2022/04/29 12:10:42;;;;;;;8.57;5.22;;;;;;;16.78;55.12;95118.31;5056541;28;20037;-94
2022/04/29 12:13:09;;;;;;;8.85;4.70;;;;;;;17.12;56.65;95121.81;5056561;28;20115;-93
2022/04/29 12:15:37;;;;;;;12.25;5.95;;;;;;;16.39;53.74;95120.97;5055906;28;20108;-94
2022/04/29 12:18:09;;;;;;;10.93;6.20;;;;;;;16.57;52.88;95109.91;5043116;28;20048;-95
2022/04/29 12:20:37;;;;;;;8.67;6.37;;;;;;;16.74;56.55;95110.16;5059526;28;20033;-93
2022/04/29 12:23:22;;;;;;;8.02;5.50;;;;;;;16.28;56.43;95108.94;5042729;28;20031;-94
2022/04/29 12:25:51;;;;;;;9.63;4.53;;;;;;;16.43;51.29;95105.31;5043015;28;20071;-95
2022/04/29 12:28:28;;;;;;;9.05;4.57;;;;;;;16.36;51.13;95108.31;5059177;28;20063;-93
2022/04/29 12:37:26;;;;;;;8.68;4.38;;;;;;;17.54;58.83;95098.81;5058950;28;20044;-92
2022/04/29 12:40:08;;;;;;;5.30;3.63;;;;;;;17.43;50.61;95100.09;5043193;28;20035;-91
2022/04/29 12:42:34;;;;;;;7.85;4.03;;;;;;;17.48;52.29;95105.28;5042352;28;20037;-92
2022/04/29 12:45:06;;;;;;;6.18;4.05;;;;;;;16.86;48.41;95095.72;5058700;28;20029;-92
2022/04/29 12:47:49;;;;;;;6.00;3.83;;;;;;;16.59;49.99;95087.38;5058604;28;20025;-92
2022/04/29 12:50:36;;;;;;;8.00;3.58;;;;;;;16.35;49.11;95085.59;5057977;28;20032;-92
2022/04/29 12:53:06;;;;;;;5.50;3.78;;;;;;;16.24;47.05;95092.09;5058399;28;20033;-93
2022/04/29 12:55:38;;;;;;;7.13;3.42;;;;;;;16.24;48.08;95084.16;5059538;28;20278;-92
2022/04/29 12:58:06;;;;;;;8.45;4.20;;;;;;;16.16;49.27;95077.66;5051086;28;20038;-92
2022/04/29 13:00:32;;;;;;;12.18;4.22;;;;;;;16.29;50.86;95070.09;5039335;28;20104;-92
2022/04/29 13:03:03;;;;;;;7.07;4.13;;;;;;;16.84;53.62;95066.09;5021788;28;20522;-91
2022/04/29 13:05:29;;;;;;;5.15;3.30;;;;;;;16.90;47.67;95064.94;5039037;28;20029;-91
2022/04/29 13:07:55;;;;;;;11.55;3.55;;;;;;;16.64;47.57;95078.56;5038149;28;20139;-92
2022/04/29 13:10:23;;;;;;;4.75;3.45;;;;;;;16.16;48.90;95063.66;5021712;28;20037;-92
2022/04/29 13:12:50;;;;;;;9.23;3.83;;;;;;;16.13;48.61;95070.31;5038227;28;20033;-91
2022/04/29 13:15:16;;;;;;;7.15;4.25;;;;;;;16.04;48.70;95062.22;5021711;28;20164;-92
2022/04/29 13:17:41;;;;;;;6.85;4.15;;;;;;;16.23;48.32;95053.50;5039135;28;20068;-92
2022/04/29 13:20:10;;;;;;;6.60;3.50;;;;;;;16.50;48.38;95041.50;5039876;28;20033;-92